Terminal Aerodrome Forecast
Issued by NWS Wakefield, VA

Home | Current Version | Previous Version | Text Only | Print | Product List | Glossary On
Versions: 1 2 3 4 5 6 7 8 9 10 11 12
000
FTUS41 KAKQ 251720
TAFRIC
TAF
KRIC 251720Z 2518/2618 22008KT P6SM SCT050
     FM260000 20004KT P6SM SKC
     FM261100 24004KT P6SM SCT120
     FM261400 28004KT P6SM SCT150=

USA.gov is the U.S. government's official web portal to all federal, state and local government web resources and services.